Time;durP1;ratioP1;P1;durP2;ratioP2;P2;SDS_P1;SDS_P2;PMS_P1;PMS_P2;Temp;Humidity;BMP_temperature;BMP_pressure;BME280_temperature;BME280_humidity;BME280_pressure;Samples;Min_cycle;Max_cycle;Signal;HPM_P1;HPM_P2
2021/01/03 00:02:31;;;;;;;1.60;0.27;;;8.30;99.90;;;;;;6284313;22;20224;-96
2021/01/03 00:05:08;;;;;;;0.40;0.20;;;8.20;99.90;;;;;;6256098;22;20155;-94
2021/01/03 00:07:43;;;;;;;2.50;0.40;;;8.20;99.90;;;;;;6275737;22;20195;-95
2021/01/03 00:10:15;;;;;;;0.17;0.17;;;8.20;99.90;;;;;;6274954;22;20232;-95
2021/01/03 00:12:49;;;;;;;0.20;0.20;;;8.30;99.90;;;;;;6275808;22;20164;-95
2021/01/03 00:15:22;;;;;;;0.50;0.50;;;8.30;99.90;;;;;;6297002;22;20517;-96
2021/01/03 00:17:59;;;;;;;0.20;0.20;;;8.20;99.90;;;;;;6271019;22;20166;-96
2021/01/03 00:20:37;;;;;;;1.40;0.30;;;8.20;99.90;;;;;;6270587;22;20201;-96
2021/01/03 00:23:15;;;;;;;0.83;0.20;;;8.30;99.90;;;;;;6293816;22;20167;-96
2021/01/03 00:25:51;;;;;;;0.17;0.17;;;8.30;99.90;;;;;;6274824;22;20229;-96
2021/01/03 00:28:27;;;;;;;0.43;0.40;;;8.30;99.90;;;;;;6268278;22;20195;-96
2021/01/03 00:30:58;;;;;;;0.30;0.30;;;8.30;99.90;;;;;;6291988;22;20181;-95
2021/01/03 00:33:29;;;;;;;0.63;0.40;;;8.20;99.90;;;;;;6295347;22;20198;-96
2021/01/03 00:35:59;;;;;;;0.10;0.10;;;8.20;99.90;;;;;;6296826;22;20204;-96
2021/01/03 00:38:37;;;;;;;0.63;0.40;;;8.20;99.90;;;;;;6299849;22;20204;-96
2021/01/03 00:41:12;;;;;;;0.30;0.30;;;8.20;99.90;;;;;;6294402;22;20174;-96
2021/01/03 00:43:46;;;;;;;1.03;0.30;;;8.20;99.90;;;;;;6298205;22;20278;-96
2021/01/03 00:46:17;;;;;;;1.53;0.40;;;8.20;99.90;;;;;;6272262;22;20176;-96
2021/01/03 00:48:48;;;;;;;0.50;0.27;;;8.20;99.90;;;;;;6297644;22;20174;-96
2021/01/03 00:51:22;;;;;;;0.30;0.30;;;8.20;99.90;;;;;;6264878;22;20225;-96
2021/01/03 00:53:54;;;;;;;0.77;0.27;;;8.30;99.90;;;;;;6296359;22;20208;-96
2021/01/03 00:56:28;;;;;;;0.30;0.23;;;8.30;99.90;;;;;;6294603;22;20535;-96
2021/01/03 00:59:00;;;;;;;1.30;0.30;;;8.20;99.90;;;;;;6290993;22;20183;-96
2021/01/03 01:01:33;;;;;;;0.40;0.40;;;8.20;99.90;;;;;;6298821;22;20178;-96
2021/01/03 01:04:05;;;;;;;0.30;0.30;;;8.30;99.90;;;;;;6290986;22;20233;-96
2021/01/03 01:06:45;;;;;;;0.27;0.20;;;8.30;99.90;;;;;;6299557;22;20625;-96
2021/01/03 01:09:18;;;;;;;1.03;0.37;;;8.30;99.90;;;;;;6295953;22;20193;-96
2021/01/03 01:11:50;;;;;;;0.40;0.30;;;8.20;99.90;;;;;;6259367;22;20167;-96
2021/01/03 01:14:23;;;;;;;0.80;0.27;;;8.20;99.90;;;;;;6293206;22;20223;-96
2021/01/03 01:16:57;;;;;;;0.30;0.30;;;8.30;99.90;;;;;;6294280;22;20178;-96
2021/01/03 01:19:28;;;;;;;0.60;0.40;;;8.30;99.90;;;;;;6265875;22;20260;-96
2021/01/03 01:22:00;;;;;;;0.30;0.30;;;8.20;99.90;;;;;;6286420;22;20163;-95
2021/01/03 01:24:30;;;;;;;0.50;0.30;;;8.30;99.90;;;;;;6296688;22;20182;-96
2021/01/03 01:27:05;;;;;;;0.40;0.30;;;8.30;99.90;;;;;;6287131;22;20199;-95
2021/01/03 01:29:42;;;;;;;0.20;0.20;;;8.30;99.90;;;;;;6288797;22;20175;-96
2021/01/03 01:32:13;;;;;;;0.23;0.23;;;8.30;99.90;;;;;;6295063;22;20167;-96
2021/01/03 01:34:47;;;;;;;0.30;0.30;;;8.30;99.90;;;;;;6290796;22;20179;-95
2021/01/03 01:37:17;;;;;;;0.40;0.20;;;8.30;99.90;;;;;;6283184;22;20175;-95
2021/01/03 01:39:49;;;;;;;0.50;0.30;;;8.30;99.90;;;;;;6289299;22;20226;-95
2021/01/03 01:42:22;;;;;;;0.60;0.40;;;8.30;99.90;;;;;;6286536;22;20269;-95
2021/01/03 01:44:56;;;;;;;0.40;0.30;;;8.30;99.90;;;;;;6284072;22;20206;-96
2021/01/03 01:47:29;;;;;;;3.20;0.20;;;8.40;99.90;;;;;;6281819;22;20215;-95
2021/01/03 01:50:03;;;;;;;0.30;0.20;;;8.30;99.90;;;;;;6283453;22;20180;-96
2021/01/03 01:55:15;;;;;;;0.30;0.30;;;8.40;99.90;;;;;;6291716;22;20220;-95
2021/01/03 01:58:46;;;;;;;0.47;0.20;;;8.40;99.90;;;;;;6285179;22;20194;-95
2021/01/03 02:01:31;;;;;;;0.50;0.20;;;8.30;99.90;;;;;;6291813;22;20162;-96
2021/01/03 02:06:52;;;;;;;0.20;0.20;;;8.30;99.90;;;;;;6289133;22;20206;-96
2021/01/03 02:09:46;;;;;;;0.20;0.20;;;8.40;99.90;;;;;;6265554;22;20203;-96
2021/01/03 02:12:27;;;;;;;1.33;0.10;;;8.40;99.90;;;;;;6273415;22;20182;-96
2021/01/03 02:15:01;;;;;;;0.50;0.30;;;8.40;99.90;;;;;;6271344;22;20170;-96
2021/01/03 02:17:34;;;;;;;0.73;0.20;;;8.40;99.90;;;;;;6296941;22;20163;-96
2021/01/03 02:22:46;;;;;;;0.10;0.10;;;8.40;99.90;;;;;;6261621;22;20186;-96
2021/01/03 02:25:21;;;;;;;1.30;0.30;;;8.50;99.90;;;;;;6270155;22;20228;-96
2021/01/03 02:28:13;;;;;;;0.30;0.30;;;8.40;99.90;;;;;;6302676;22;20227;-95
2021/01/03 02:30:49;;;;;;;0.53;0.30;;;8.40;99.90;;;;;;6269964;22;20197;-96
2021/01/03 02:33:31;;;;;;;0.53;0.20;;;8.50;99.90;;;;;;6300473;22;20166;-92
2021/01/03 02:36:08;;;;;;;2.40;0.20;;;8.40;99.90;;;;;;6297791;22;20167;-92
2021/01/03 02:38:43;;;;;;;0.20;0.20;;;8.40;99.90;;;;;;6281020;22;20662;-93
2021/01/03 02:41:18;;;;;;;0.30;0.30;;;8.50;99.90;;;;;;6280928;22;20166;-93
2021/01/03 02:43:49;;;;;;;0.20;0.20;;;8.40;99.90;;;;;;6280672;22;20175;-96
2021/01/03 02:46:20;;;;;;;0.27;0.27;;;8.50;99.90;;;;;;6280692;22;20175;-95
2021/01/03 02:48:56;;;;;;;0.20;0.20;;;8.40;99.90;;;;;;6283144;22;20176;-95
2021/01/03 02:51:34;;;;;;;0.40;0.30;;;8.40;99.90;;;;;;6284226;22;20509;-93
2021/01/03 02:54:07;;;;;;;0.30;0.30;;;8.40;99.90;;;;;;6286355;22;20170;-93
2021/01/03 02:56:40;;;;;;;1.23;0.30;;;8.40;99.90;;;;;;6285987;22;20695;-93
2021/01/03 02:59:14;;;;;;;0.30;0.30;;;8.40;99.90;;;;;;6265158;22;20193;-94
2021/01/03 03:01:45;;;;;;;0.73;0.60;;;8.30;99.90;;;;;;6291200;22;20276;-95
2021/01/03 03:04:16;;;;;;;0.73;0.50;;;8.30;99.90;;;;;;6266579;22;20224;-93
2021/01/03 03:06:55;;;;;;;1.17;0.40;;;8.30;99.90;;;;;;6292388;22;20202;-94
2021/01/03 03:09:26;;;;;;;1.27;0.27;;;8.30;99.90;;;;;;6265327;22;20178;-94
2021/01/03 03:11:59;;;;;;;1.53;0.40;;;8.40;99.90;;;;;;6291598;22;20244;-95
2021/01/03 03:14:30;;;;;;;0.30;0.30;;;8.30;99.90;;;;;;6266744;22;20220;-93
2021/01/03 03:17:02;;;;;;;0.60;0.30;;;8.30;99.90;;;;;;6291799;22;20175;-95
2021/01/03 03:19:32;;;;;;;0.53;0.37;;;8.30;99.90;;;;;;6293156;22;20179;-94
2021/01/03 03:22:06;;;;;;;0.40;0.40;;;8.30;99.90;;;;;;6292999;22;20170;-94
2021/01/03 03:24:48;;;;;;;2.40;0.30;;;8.30;99.90;;;;;;6266898;22;20182;-94
2021/01/03 03:27:19;;;;;;;1.00;0.43;;;8.30;99.90;;;;;;6292771;22;20280;-94
2021/01/03 03:29:53;;;;;;;0.30;0.30;;;8.30;99.90;;;;;;6296221;22;20169;-94
2021/01/03 03:32:23;;;;;;;0.43;0.30;;;8.40;99.90;;;;;;6292632;22;20187;-95
2021/01/03 03:34:56;;;;;;;0.47;0.30;;;8.40;99.90;;;;;;6265625;22;20179;-94
2021/01/03 03:37:27;;;;;;;0.87;0.30;;;8.50;99.90;;;;;;6293522;22;20746;-94
2021/01/03 03:39:58;;;;;;;0.90;0.40;;;8.50;99.90;;;;;;6293285;22;20257;-96
2021/01/03 03:42:34;;;;;;;0.43;0.33;;;8.50;99.90;;;;;;6292959;22;20225;-95
2021/01/03 03:45:11;;;;;;;0.20;0.20;;;8.50;99.90;;;;;;6292984;22;20182;-94
2021/01/03 03:47:41;;;;;;;0.70;0.60;;;8.50;99.90;;;;;;6292368;22;20208;-95
2021/01/03 03:50:18;;;;;;;5.60;0.50;;;8.50;99.90;;;;;;6291735;22;20614;-93
2021/01/03 03:52:49;;;;;;;3.23;0.30;;;8.40;99.90;;;;;;6292416;22;20163;-94
2021/01/03 03:55:19;;;;;;;0.50;0.40;;;8.40;99.90;;;;;;6265780;22;20194;-94
2021/01/03 03:57:51;;;;;;;0.60;0.40;;;8.50;99.90;;;;;;6293046;22;20566;-95
2021/01/03 04:00:24;;;;;;;0.20;0.20;;;8.40;99.90;;;;;;6292790;22;20254;-96
2021/01/03 04:02:56;;;;;;;0.30;0.30;;;8.50;99.90;;;;;;6293561;22;20233;-94
2021/01/03 04:05:29;;;;;;;0.70;0.30;;;8.50;99.90;;;;;;6268193;22;20198;-92
2021/01/03 04:07:59;;;;;;;0.20;0.20;;;8.40;99.90;;;;;;6293764;22;20257;-96
2021/01/03 04:10:45;;;;;;;3.27;0.50;;;8.50;99.90;;;;;;6267288;22;20167;-95
2021/01/03 04:13:18;;;;;;;0.97;0.60;;;8.50;99.90;;;;;;6294881;22;20267;-95
2021/01/03 04:15:50;;;;;;;0.40;0.40;;;8.40;99.90;;;;;;6293186;22;20196;-94
2021/01/03 04:18:22;;;;;;;0.90;0.80;;;8.40;99.90;;;;;;6292785;22;20186;-95
2021/01/03 04:20:53;;;;;;;0.60;0.50;;;8.40;99.90;;;;;;6294710;22;20209;-95
2021/01/03 04:23:30;;;;;;;0.90;0.53;;;8.40;99.90;;;;;;6268061;22;20175;-94
2021/01/03 04:26:07;;;;;;;0.80;0.77;;;8.40;99.90;;;;;;6299531;22;20189;-94
2021/01/03 04:28:43;;;;;;;1.30;0.90;;;8.40;99.90;;;;;;6274573;22;20214;-94
2021/01/03 04:31:19;;;;;;;2.43;0.80;;;8.40;99.90;;;;;;6296972;22;20233;-94
2021/01/03 04:33:59;;;;;;;0.90;0.70;;;8.40;99.90;;;;;;6294933;22;20179;-93
2021/01/03 04:36:30;;;;;;;1.67;0.90;;;8.40;99.90;;;;;;6270092;22;20190;-93
2021/01/03 04:39:06;;;;;;;1.23;0.53;;;8.30;99.90;;;;;;6275617;22;20604;-93
2021/01/03 04:41:39;;;;;;;1.60;0.80;;;8.30;99.90;;;;;;6296881;22;20177;-93
2021/01/03 04:44:33;;;;;;;3.10;0.90;;;8.30;99.90;;;;;;6303379;22;20179;-93
2021/01/03 04:47:30;;;;;;;2.87;0.80;;;8.30;99.90;;;;;;6298492;22;20232;-92
2021/01/03 04:50:21;;;;;;;2.03;0.80;;;8.30;99.90;;;;;;6301319;22;20177;-92
2021/01/03 04:53:12;;;;;;;2.93;1.10;;;8.40;99.90;;;;;;6301295;22;20186;-93
2021/01/03 04:55:51;;;;;;;6.97;1.93;;;8.30;99.90;;;;;;6298398;22;20420;-94
2021/01/03 04:58:36;;;;;;;8.37;1.60;;;8.40;99.90;;;;;;6268862;22;20211;-93
2021/01/03 05:01:34;;;;;;;2.30;1.37;;;8.40;99.90;;;;;;6268723;22;20202;-92
2021/01/03 05:04:37;;;;;;;3.53;1.60;;;8.40;99.90;;;;;;6266695;22;20183;-93
2021/01/03 05:07:13;;;;;;;1.73;1.10;;;8.40;99.90;;;;;;6293829;22;20201;-95
2021/01/03 05:09:44;;;;;;;1.20;0.87;;;8.40;99.90;;;;;;6295388;22;20182;-93
2021/01/03 05:12:26;;;;;;;2.27;1.17;;;8.40;99.90;;;;;;6296544;22;20174;-94
2021/01/03 05:15:04;;;;;;;2.77;0.80;;;8.40;99.90;;;;;;6294693;22;20177;-95
2021/01/03 05:17:36;;;;;;;7.40;0.80;;;8.30;99.90;;;;;;6296047;22;20182;-93
2021/01/03 05:20:08;;;;;;;4.93;0.77;;;8.20;99.90;;;;;;6294316;22;20181;-92
2021/01/03 05:22:43;;;;;;;2.27;0.90;;;8.00;99.90;;;;;;6296639;22;20175;-94
2021/01/03 05:25:18;;;;;;;1.63;0.90;;;8.00;99.90;;;;;;6293539;22;20176;-94
2021/01/03 05:28:05;;;;;;;2.13;0.57;;;7.80;99.90;;;;;;6269497;22;20415;-94
2021/01/03 05:30:40;;;;;;;5.67;0.80;;;7.50;99.90;;;;;;6293887;22;20186;-93
2021/01/03 05:33:17;;;;;;;3.20;0.90;;;7.40;99.90;;;;;;6295029;22;20230;-94
2021/01/03 05:35:47;;;;;;;3.23;0.80;;;7.20;99.90;;;;;;6294265;22;20182;-94
2021/01/03 05:38:38;;;;;;;3.13;1.00;;;6.90;99.90;;;;;;6295006;22;20258;-96
2021/01/03 05:41:19;;;;;;;2.17;0.80;;;6.80;99.90;;;;;;6293427;22;20175;-94
2021/01/03 05:43:56;;;;;;;3.67;0.80;;;6.60;99.90;;;;;;6293245;22;20167;-94
2021/01/03 05:46:38;;;;;;;3.27;0.70;;;6.60;99.90;;;;;;6293289;22;20175;-92
2021/01/03 05:49:14;;;;;;;5.30;1.00;;;6.40;99.90;;;;;;6292293;22;20202;-93
2021/01/03 05:51:47;;;;;;;6.50;0.93;;;6.30;99.90;;;;;;6264728;22;20185;-93
2021/01/03 05:54:25;;;;;;;2.43;1.20;;;6.30;99.90;;;;;;6266450;22;20171;-92
2021/01/03 05:57:13;;;;;;;3.87;0.80;;;6.10;99.90;;;;;;6295203;22;20171;-94
2021/01/03 05:59:50;;;;;;;8.63;1.00;;;6.10;99.90;;;;;;6293277;22;20171;-93
2021/01/03 06:02:23;;;;;;;19.67;1.93;;;6.10;99.90;;;;;;6293522;22;20193;-94
2021/01/03 06:05:11;;;;;;;8.80;1.40;;;6.10;99.90;;;;;;6293831;22;20179;-94
2021/01/03 06:07:45;;;;;;;6.37;1.80;;;6.10;99.90;;;;;;6292748;22;20182;-95
2021/01/03 06:10:30;;;;;;;4.53;1.20;;;6.00;99.90;;;;;;6293007;22;20175;-94
2021/01/03 06:13:05;;;;;;;6.40;1.20;;;6.00;99.90;;;;;;6293568;22;20174;-95
2021/01/03 06:15:40;;;;;;;5.67;1.03;;;5.90;99.90;;;;;;6266597;22;20228;-95
2021/01/03 06:18:17;;;;;;;3.57;1.10;;;5.80;99.90;;;;;;6267727;22;20177;-96
2021/01/03 06:20:49;;;;;;;8.93;1.50;;;5.70;99.90;;;;;;6292457;22;20205;-93
2021/01/03 06:23:31;;;;;;;6.60;1.20;;;5.60;99.90;;;;;;6291301;22;20175;-92
2021/01/03 06:26:09;;;;;;;6.67;1.23;;;5.50;99.90;;;;;;6266486;22;20171;-94
2021/01/03 06:28:49;;;;;;;4.97;0.80;;;5.40;99.90;;;;;;6268655;22;20251;-93
2021/01/03 06:31:51;;;;;;;4.07;1.00;;;5.30;99.90;;;;;;6265765;22;20187;-93
2021/01/03 06:34:30;;;;;;;12.43;2.73;;;5.20;99.90;;;;;;6292990;22;20236;-95
2021/01/03 06:37:12;;;;;;;15.20;1.80;;;5.10;99.90;;;;;;6292559;22;20182;-95
2021/01/03 06:39:55;;;;;;;13.97;3.00;;;5.10;99.90;;;;;;6291042;22;20186;-95
2021/01/03 06:42:55;;;;;;;7.37;2.00;;;5.00;99.90;;;;;;6265035;22;20218;-94
2021/01/03 06:45:54;;;;;;;16.80;2.20;;;5.00;99.90;;;;;;6263461;22;20186;-93
2021/01/03 06:49:18;;;;;;;10.53;3.43;;;4.90;99.90;;;;;;6270222;22;20237;-93
2021/01/03 06:52:38;;;;;;;7.93;1.93;;;4.90;99.90;;;;;;6289952;22;20179;-92
2021/01/03 06:55:57;;;;;;;15.10;2.97;;;4.80;99.90;;;;;;6172969;23;20736;-92
2021/01/03 06:59:18;;;;;;;10.70;2.07;;;4.80;99.90;;;;;;6168174;23;20177;-94
2021/01/03 07:01:49;;;;;;;10.33;1.70;;;4.80;99.90;;;;;;6169735;23;20170;-94
2021/01/03 07:04:26;;;;;;;4.57;1.37;;;4.80;99.90;;;;;;6172819;23;20190;-95
2021/01/03 07:07:01;;;;;;;4.93;1.13;;;4.80;99.90;;;;;;6263637;22;20194;-95
2021/01/03 07:09:32;;;;;;;6.13;1.27;;;4.80;99.90;;;;;;6301340;22;20158;-95
2021/01/03 07:12:05;;;;;;;7.20;1.20;;;4.80;99.90;;;;;;6299239;22;20210;-93
2021/01/03 07:14:58;;;;;;;8.53;1.07;;;4.80;99.90;;;;;;6296343;22;20175;-95
2021/01/03 07:17:55;;;;;;;2.40;0.80;;;4.80;99.90;;;;;;6296155;22;20186;-95
2021/01/03 07:20:32;;;;;;;6.00;0.87;;;4.80;99.90;;;;;;6292536;22;20245;-93
2021/01/03 07:23:13;;;;;;;6.93;1.60;;;4.80;99.90;;;;;;6295926;22;20196;-93
2021/01/03 07:25:54;;;;;;;5.30;0.80;;;4.70;99.90;;;;;;6291365;22;20178;-93
2021/01/03 07:28:31;;;;;;;2.57;0.90;;;4.70;99.90;;;;;;6265688;22;20209;-93
2021/01/03 07:31:11;;;;;;;3.23;0.67;;;4.60;99.90;;;;;;6294807;22;20179;-93
2021/01/03 07:33:52;;;;;;;1.57;0.40;;;4.60;99.90;;;;;;6274008;22;20162;-95
2021/01/03 07:36:27;;;;;;;4.87;0.70;;;4.50;99.90;;;;;;6299008;22;20257;-94
2021/01/03 07:39:27;;;;;;;9.47;0.67;;;4.50;99.90;;;;;;6272232;22;20181;-95
2021/01/03 07:42:19;;;;;;;6.13;0.60;;;4.50;99.90;;;;;;6297812;22;20219;-95
2021/01/03 07:44:52;;;;;;;2.33;0.53;;;4.40;99.90;;;;;;6272113;22;20175;-93
2021/01/03 07:47:43;;;;;;;7.37;1.70;;;4.40;99.90;;;;;;6298603;22;20178;-93
2021/01/03 07:50:37;;;;;;;1.37;0.50;;;4.40;99.90;;;;;;6299021;22;20303;-94
2021/01/03 07:53:29;;;;;;;3.83;0.60;;;4.40;99.90;;;;;;6273468;22;20194;-92
2021/01/03 07:56:19;;;;;;;3.00;0.60;;;4.30;99.90;;;;;;6302055;22;20166;-93
2021/01/03 07:58:55;;;;;;;2.73;0.50;;;4.30;99.90;;;;;;6301714;22;20239;-91
2021/01/03 08:01:33;;;;;;;2.73;0.60;;;4.30;99.90;;;;;;6301577;22;20190;-95
2021/01/03 08:09:26;;;;;;;4.10;0.57;;;4.20;99.90;;;;;;6272578;22;20207;-92
2021/01/03 08:12:12;;;;;;;1.90;0.50;;;4.20;99.90;;;;;;6247616;22;20167;-89
2021/01/03 08:14:46;;;;;;;1.23;0.40;;;4.10;99.90;;;;;;6302760;22;20221;-95
2021/01/03 08:17:25;;;;;;;1.27;0.50;;;4.10;99.90;;;;;;6303227;22;20179;-94
2021/01/03 08:20:03;;;;;;;1.90;0.53;;;4.10;99.90;;;;;;6303256;22;20163;-94
2021/01/03 08:22:34;;;;;;;2.00;0.50;;;4.00;99.90;;;;;;6301123;22;20162;-94
2021/01/03 08:25:08;;;;;;;3.53;0.40;;;3.90;99.90;;;;;;6296419;22;20610;-93
2021/01/03 08:27:58;;;;;;;1.43;0.40;;;3.90;99.90;;;;;;6295959;22;20195;-93
2021/01/03 08:30:29;;;;;;;0.73;0.30;;;3.90;99.90;;;;;;6294137;22;20171;-93
2021/01/03 08:33:09;;;;;;;1.07;0.40;;;3.90;99.90;;;;;;6267928;22;20227;-92
2021/01/03 08:35:40;;;;;;;1.43;0.30;;;3.80;99.90;;;;;;6294066;22;20171;-93
2021/01/03 08:38:12;;;;;;;0.77;0.20;;;3.80;99.90;;;;;;6292850;22;20206;-93
2021/01/03 08:40:45;;;;;;;1.13;0.30;;;3.80;99.90;;;;;;6292935;22;20241;-95
2021/01/03 08:43:23;;;;;;;3.50;0.40;;;3.70;99.90;;;;;;6293628;22;20190;-96
2021/01/03 08:45:55;;;;;;;0.97;0.40;;;3.70;99.90;;;;;;6293283;22;20230;-94
2021/01/03 08:48:33;;;;;;;0.53;0.20;;;3.60;99.90;;;;;;6292088;22;20228;-93
2021/01/03 08:51:08;;;;;;;0.57;0.30;;;3.60;99.90;;;;;;6290897;22;20179;-93
2021/01/03 08:53:42;;;;;;;2.97;0.40;;;3.60;99.90;;;;;;6296453;22;20201;-92
2021/01/03 08:56:20;;;;;;;1.27;0.30;;;3.50;99.90;;;;;;6273435;22;20162;-94
2021/01/03 08:58:51;;;;;;;1.33;0.20;;;3.50;99.90;;;;;;6274147;22;20163;-94
2021/01/03 09:04:03;;;;;;;3.10;0.50;;;3.40;99.90;;;;;;6304894;22;20213;-94
2021/01/03 09:06:39;;;;;;;1.37;0.23;;;3.40;99.90;;;;;;6271550;22;20178;-95
2021/01/03 09:09:17;;;;;;;1.53;0.40;;;3.40;99.90;;;;;;6293568;22;20194;-95
2021/01/03 09:11:53;;;;;;;10.97;0.53;;;3.40;99.90;;;;;;6293779;22;20163;-96
2021/01/03 09:14:32;;;;;;;0.57;0.20;;;3.30;99.90;;;;;;6295451;22;20253;-96
2021/01/03 09:17:08;;;;;;;0.20;0.20;;;3.20;99.90;;;;;;6294979;22;20174;-96
2021/01/03 09:19:51;;;;;;;1.23;0.40;;;3.20;99.90;;;;;;6296920;22;20183;-95
2021/01/03 09:22:28;;;;;;;0.30;0.20;;;3.10;99.90;;;;;;6296119;22;20173;-94
2021/01/03 09:25:08;;;;;;;1.10;0.30;;;3.10;99.90;;;;;;6273249;22;20174;-95
2021/01/03 09:27:40;;;;;;;0.30;0.20;;;3.00;99.90;;;;;;6301461;22;20196;-95
2021/01/03 09:30:23;;;;;;;0.13;0.10;;;2.90;99.90;;;;;;6298799;22;20174;-94
2021/01/03 09:33:06;;;;;;;1.73;0.30;;;2.90;99.90;;;;;;6288628;22;20220;-96
2021/01/03 09:35:52;;;;;;;2.47;0.20;;;2.90;99.90;;;;;;6296746;22;20178;-95
2021/01/03 09:38:54;;;;;;;0.23;0.10;;;2.90;99.90;;;;;;6294478;22;20171;-95
2021/01/03 09:41:41;;;;;;;1.23;0.10;;;2.90;99.90;;;;;;6293147;22;20167;-96
2021/01/03 09:44:41;;;;;;;0.83;0.20;;;2.90;99.90;;;;;;6293727;22;20178;-95
2021/01/03 09:47:17;;;;;;;1.70;0.30;;;2.90;99.90;;;;;;6296094;22;20177;-96
2021/01/03 09:49:51;;;;;;;3.50;0.20;;;2.70;99.90;;;;;;6269306;22;20202;-96
2021/01/03 09:52:31;;;;;;;0.97;0.30;;;2.70;99.90;;;;;;6299603;22;20216;-94
2021/01/03 09:55:30;;;;;;;0.90;0.40;;;2.80;99.90;;;;;;6273697;22;20171;-96
2021/01/03 09:58:05;;;;;;;0.80;0.20;;;2.80;99.90;;;;;;6292880;22;20529;-95
2021/01/03 10:00:51;;;;;;;0.17;0.17;;;2.90;99.90;;;;;;6266587;22;20185;-95
2021/01/03 10:03:29;;;;;;;0.40;0.20;;;2.80;99.90;;;;;;6268011;22;20244;-96
2021/01/03 10:06:12;;;;;;;5.87;0.30;;;2.80;99.90;;;;;;6294174;22;20357;-96
2021/01/03 10:08:47;;;;;;;0.30;0.20;;;2.90;99.90;;;;;;6293144;22;20226;-96
2021/01/03 10:11:32;;;;;;;0.40;0.27;;;2.90;99.90;;;;;;6293010;22;20199;-95
2021/01/03 10:14:09;;;;;;;0.10;0.10;;;2.80;99.90;;;;;;6267978;22;20208;-95
2021/01/03 10:16:42;;;;;;;0.20;0.20;;;2.70;99.90;;;;;;6292833;22;20224;-94
2021/01/03 10:19:20;;;;;;;0.20;0.20;;;2.80;99.90;;;;;;6294078;22;20174;-94
2021/01/03 10:21:51;;;;;;;0.57;0.20;;;2.80;99.90;;;;;;6293074;22;20235;-93
2021/01/03 10:24:25;;;;;;;0.10;0.10;;;2.90;99.90;;;;;;6291477;22;20201;-92
2021/01/03 10:27:16;;;;;;;0.40;0.10;;;3.00;99.90;;;;;;6292671;22;20184;-94
2021/01/03 10:29:46;;;;;;;0.60;0.20;;;2.90;99.90;;;;;;6292081;22;20220;-96
2021/01/03 10:32:17;;;;;;;0.50;0.10;;;2.90;99.90;;;;;;6290907;22;20178;-94
2021/01/03 10:34:49;;;;;;;0.57;0.10;;;2.80;99.90;;;;;;6266079;22;20178;-95
2021/01/03 10:37:19;;;;;;;0.30;0.17;;;2.80;99.90;;;;;;6291477;22;20171;-96
2021/01/03 10:39:51;;;;;;;0.60;0.23;;;2.80;99.90;;;;;;6265945;22;20178;-96
2021/01/03 10:42:23;;;;;;;0.53;0.30;;;2.90;99.90;;;;;;6290760;22;20171;-95
2021/01/03 10:44:57;;;;;;;0.40;0.27;;;2.90;99.90;;;;;;6266139;22;20175;-95
2021/01/03 10:47:27;;;;;;;2.17;0.20;;;3.00;99.90;;;;;;6268143;22;20175;-96
2021/01/03 10:49:58;;;;;;;0.10;0.10;;;3.00;99.90;;;;;;6266527;22;20213;-95
2021/01/03 10:52:29;;;;;;;0.10;0.10;;;3.10;99.90;;;;;;6268161;22;20238;-96
2021/01/03 10:55:01;;;;;;;0.50;0.37;;;3.20;99.90;;;;;;6291808;22;20171;-96
2021/01/03 10:57:32;;;;;;;1.13;0.20;;;3.30;99.90;;;;;;6291715;22;20194;-95
2021/01/03 11:00:02;;;;;;;0.87;0.30;;;3.30;99.90;;;;;;6293094;22;20238;-96
2021/01/03 11:02:33;;;;;;;0.30;0.20;;;3.20;99.90;;;;;;6293427;22;20185;-95
2021/01/03 11:05:05;;;;;;;0.57;0.13;;;3.20;99.90;;;;;;6292434;22;20181;-96
2021/01/03 11:07:36;;;;;;;0.10;0.10;;;3.20;99.90;;;;;;6293963;22;20182;-96
2021/01/03 11:10:11;;;;;;;0.17;0.10;;;3.10;99.90;;;;;;6267789;22;20416;-96
2021/01/03 11:12:42;;;;;;;0.10;0.10;;;3.10;99.90;;;;;;6295087;22;20202;-96
2021/01/03 11:15:18;;;;;;;0.10;0.10;;;3.10;99.90;;;;;;6268623;22;20230;-96
2021/01/03 11:17:56;;;;;;;0.97;0.70;;;3.10;99.90;;;;;;6294343;22;20163;-96
2021/01/03 11:20:28;;;;;;;0.97;0.50;;;3.10;99.90;;;;;;6294569;22;20179;-96
2021/01/03 11:22:59;;;;;;;0.13;0.13;;;3.10;99.90;;;;;;6268613;22;20167;-96
2021/01/03 11:25:32;;;;;;;0.07;0.07;;;3.10;99.90;;;;;;6293891;22;20175;-95
2021/01/03 11:28:04;;;;;;;0.10;0.10;;;3.20;99.90;;;;;;6294189;22;20183;-96
2021/01/03 11:30:35;;;;;;;0.10;0.10;;;3.30;99.90;;;;;;6268574;22;20185;-96
2021/01/03 11:33:06;;;;;;;0.20;0.10;;;3.40;99.90;;;;;;6292127;22;20181;-96
2021/01/03 11:35:43;;;;;;;0.73;0.20;;;3.40;99.90;;;;;;6295088;22;20232;-95
2021/01/03 11:38:15;;;;;;;0.17;0.17;;;3.40;99.90;;;;;;6267591;22;20178;-94
2021/01/03 11:40:48;;;;;;;0.20;0.20;;;3.40;99.90;;;;;;6294445;22;20213;-95
2021/01/03 11:43:19;;;;;;;0.37;0.10;;;3.40;99.90;;;;;;6297816;22;20170;-96
2021/01/03 11:45:50;;;;;;;0.97;0.20;;;3.40;99.90;;;;;;6275243;22;20163;-94
2021/01/03 11:48:21;;;;;;;0.13;0.10;;;3.50;99.90;;;;;;6301235;22;20194;-94
2021/01/03 11:50:56;;;;;;;0.20;0.20;;;3.50;99.90;;;;;;6295822;22;20183;-96
2021/01/03 11:53:28;;;;;;;0.77;0.27;;;3.50;99.90;;;;;;6295378;22;20208;-96
2021/01/03 11:56:01;;;;;;;1.30;0.20;;;3.50;99.90;;;;;;6292865;22;20181;-95
2021/01/03 11:58:33;;;;;;;0.10;0.10;;;3.50;99.90;;;;;;6293534;22;20213;-96
2021/01/03 12:01:05;;;;;;;1.80;0.20;;;3.50;99.90;;;;;;6267905;22;20166;-96
2021/01/03 12:03:36;;;;;;;0.20;0.20;;;3.40;99.90;;;;;;6267297;22;20178;-96
2021/01/03 12:06:11;;;;;;;0.20;0.20;;;3.40;99.90;;;;;;6295167;22;20185;-96
2021/01/03 12:08:44;;;;;;;0.10;0.10;;;3.40;99.90;;;;;;6246224;22;20206;-96
2021/01/03 12:11:32;;;;;;;0.13;0.07;;;3.30;99.90;;;;;;6267694;22;20194;-95
2021/01/03 12:14:04;;;;;;;0.10;0.10;;;3.30;99.90;;;;;;6295813;22;20223;-96
2021/01/03 12:16:37;;;;;;;0.40;0.20;;;3.30;99.90;;;;;;6269935;22;20152;-95
2021/01/03 12:19:10;;;;;;;0.20;0.20;;;3.40;99.90;;;;;;6270059;22;20181;-95
2021/01/03 12:21:41;;;;;;;0.10;0.10;;;3.30;99.90;;;;;;6267014;22;20223;-95
2021/01/03 12:24:13;;;;;;;0.10;0.10;;;3.20;99.90;;;;;;6294721;22;20262;-96
2021/01/03 12:26:45;;;;;;;0.13;0.10;;;3.30;99.90;;;;;;6292262;22;20189;-96
2021/01/03 12:29:18;;;;;;;0.67;0.20;;;3.30;99.90;;;;;;6267448;22;20502;-96
2021/01/03 12:31:51;;;;;;;1.03;0.20;;;3.30;99.90;;;;;;6293167;22;20201;-96
2021/01/03 12:34:23;;;;;;;0.20;0.13;;;3.40;99.90;;;;;;6294029;22;20183;-95
2021/01/03 12:37:02;;;;;;;0.10;0.10;;;3.40;99.90;;;;;;6268123;22;20166;-96
2021/01/03 12:39:33;;;;;;;0.17;0.10;;;3.30;99.90;;;;;;6293890;22;20208;-95
2021/01/03 12:42:18;;;;;;;0.43;0.20;;;3.30;99.90;;;;;;6293209;22;20178;-94
2021/01/03 12:44:50;;;;;;;0.67;0.10;;;3.30;99.90;;;;;;6294242;22;20205;-94
2021/01/03 12:47:22;;;;;;;0.20;0.20;;;3.30;99.90;;;;;;6295423;22;20168;-94
2021/01/03 12:49:53;;;;;;;2.27;0.30;;;3.30;99.90;;;;;;6294374;22;20229;-94
2021/01/03 12:52:24;;;;;;;0.47;0.10;;;3.40;99.90;;;;;;6294815;22;20475;-95
2021/01/03 12:54:55;;;;;;;0.57;0.10;;;3.40;99.90;;;;;;6294613;22;20165;-95
2021/01/03 12:57:28;;;;;;;0.60;0.40;;;3.50;99.90;;;;;;6294419;22;20175;-96
2021/01/03 12:59:59;;;;;;;2.40;0.23;;;3.50;99.90;;;;;;6294525;22;20171;-95
2021/01/03 13:02:30;;;;;;;0.10;0.10;;;3.60;99.90;;;;;;6293353;22;20201;-96
2021/01/03 13:05:01;;;;;;;0.30;0.10;;;3.70;99.90;;;;;;6293424;22;20175;-95
2021/01/03 13:07:33;;;;;;;0.20;0.20;;;3.80;99.90;;;;;;6293889;22;20206;-96
2021/01/03 13:10:06;;;;;;;2.20;0.40;;;3.80;99.90;;;;;;6268709;22;20203;-95
2021/01/03 13:12:41;;;;;;;0.97;0.20;;;3.70;99.90;;;;;;6294362;22;20527;-96
2021/01/03 13:15:15;;;;;;;1.03;0.30;;;3.80;99.90;;;;;;6295310;22;20185;-96
2021/01/03 13:17:46;;;;;;;1.50;0.23;;;3.80;99.90;;;;;;6296374;22;20199;-96
2021/01/03 13:20:18;;;;;;;0.50;0.20;;;3.80;99.90;;;;;;6295067;22;20219;-96
2021/01/03 13:22:49;;;;;;;1.37;0.33;;;3.80;99.90;;;;;;6295678;22;20171;-96
2021/01/03 13:25:20;;;;;;;0.23;0.23;;;3.80;99.90;;;;;;6269657;22;20163;-95
2021/01/03 13:27:53;;;;;;;0.43;0.20;;;3.80;99.90;;;;;;6294671;22;20171;-95
2021/01/03 13:30:24;;;;;;;1.07;0.30;;;3.80;99.90;;;;;;6294855;22;20225;-94
2021/01/03 13:32:54;;;;;;;1.47;0.40;;;3.80;99.90;;;;;;6295067;22;20179;-96
2021/01/03 13:35:26;;;;;;;1.53;0.30;;;3.80;99.90;;;;;;6269401;22;20237;-96
2021/01/03 13:37:58;;;;;;;0.97;0.30;;;3.80;99.90;;;;;;6269617;22;20171;-96
2021/01/03 13:40:29;;;;;;;1.27;0.30;;;3.80;99.90;;;;;;6266957;22;20178;-95
2021/01/03 13:43:02;;;;;;;1.67;0.30;;;3.80;99.90;;;;;;6266974;22;20236;-96
2021/01/03 13:45:34;;;;;;;0.30;0.20;;;3.80;99.90;;;;;;6293449;22;20175;-95
2021/01/03 13:48:07;;;;;;;1.03;0.40;;;3.90;99.90;;;;;;6294003;22;20181;-96
2021/01/03 13:50:39;;;;;;;2.13;0.30;;;3.90;99.90;;;;;;6293210;22;20182;-95
2021/01/03 13:53:09;;;;;;;0.93;0.40;;;3.90;99.90;;;;;;6293689;22;20242;-96
2021/01/03 13:55:41;;;;;;;0.60;0.37;;;3.90;99.90;;;;;;6295311;22;20157;-96
2021/01/03 13:58:14;;;;;;;3.03;0.60;;;3.90;99.90;;;;;;6295770;22;20209;-96
2021/01/03 14:00:46;;;;;;;4.00;0.70;;;3.90;99.90;;;;;;6295795;22;20171;-96
2021/01/03 14:03:16;;;;;;;2.53;0.67;;;3.90;99.90;;;;;;6275533;22;20217;-96
2021/01/03 14:13:51;;;;;;;4.13;0.53;;;4.10;99.90;;;;;;6299672;22;20217;-94